Time;durP1;ratioP1;P1;durP2;ratioP2;P2;SDS_P1;SDS_P2;PMS_P1;PMS_P2;Temp;Humidity;BMP_temperature;BMP_pressure;BME280_temperature;BME280_humidity;BME280_pressure;Samples;Min_cycle;Max_cycle;Signal;HPM_P1;HPM_P2
2023/06/13 00:00:13;;;;;;;;;23.00;22.67;;;;;21.43;100.00;100957.56;5061932;28;45522;-82
2023/06/13 00:02:39;;;;;;;;;26.00;26.00;;;;;21.46;100.00;100968.06;5081190;28;45530;-81
2023/06/13 00:05:06;;;;;;;;;27.33;22.33;;;;;21.44;100.00;100961.09;5092185;27;45395;-82
2023/06/13 00:07:32;;;;;;;;;24.33;22.00;;;;;21.42;100.00;100958.56;5080222;28;45495;-82
2023/06/13 00:09:59;;;;;;;;;28.33;25.33;;;;;21.38;100.00;100954.44;5058455;28;45406;-81
2023/06/13 00:12:25;;;;;;;;;27.33;27.00;;;;;21.27;100.00;100950.00;5080787;28;45325;-82
2023/06/13 00:14:51;;;;;;;;;24.67;24.33;;;;;21.24;100.00;100944.03;5092574;27;46041;-82
2023/06/13 00:17:18;;;;;;;;;27.00;26.00;;;;;21.25;100.00;100959.22;5088068;27;45355;-82
2023/06/13 00:19:44;;;;;;;;;32.00;26.00;;;;;21.21;100.00;100955.06;5078576;27;45708;-81
2023/06/13 00:22:13;;;;;;;;;29.33;28.00;;;;;21.14;100.00;100943.16;5053299;27;45398;-81
2023/06/13 00:24:40;;;;;;;;;26.33;23.00;;;;;21.09;100.00;100953.44;5070497;28;48186;-82
2023/06/13 00:27:06;;;;;;;;;25.00;21.33;;;;;20.94;100.00;100922.56;5100496;27;45384;-81
2023/06/13 00:29:31;;;;;;;;;29.00;29.00;;;;;21.07;100.00;100944.69;5088701;27;45401;-81
2023/06/13 00:31:57;;;;;;;;;28.67;28.67;;;;;21.10;100.00;100949.81;5073073;27;45300;-82
2023/06/13 00:34:22;;;;;;;;;27.67;27.67;;;;;21.05;100.00;100943.94;5066602;28;51817;-81
2023/06/13 00:36:49;;;;;;;;;30.33;27.33;;;;;20.72;100.00;100897.53;5064100;27;45344;-81
2023/06/13 00:39:15;;;;;;;;;30.00;28.50;;;;;21.00;100.00;100943.53;5068430;27;45283;-81
2023/06/13 00:41:40;;;;;;;;;33.00;27.67;;;;;20.95;100.00;100946.59;5101289;27;45400;-82
2023/06/13 00:44:06;;;;;;;;;30.33;26.67;;;;;20.95;100.00;100940.38;5079397;27;52208;-82
2023/06/13 00:46:34;;;;;;;;;28.67;23.00;;;;;20.86;100.00;100928.59;5080701;28;45355;-82
2023/06/13 00:49:00;;;;;;;;;34.67;30.67;;;;;20.72;100.00;100910.97;5083628;27;45284;-82
2023/06/13 00:51:27;;;;;;;;;32.33;27.00;;;;;20.69;100.00;100911.25;5078678;27;45293;-82
2023/06/13 00:53:55;;;;;;;;;27.00;26.33;;;;;20.81;100.00;100928.13;5075691;28;46256;-82
2023/06/13 00:56:22;;;;;;;;;30.67;27.00;;;;;20.60;100.00;100909.38;5060877;28;45470;-82
2023/06/13 00:58:47;;;;;;;;;31.33;27.33;;;;;20.68;100.00;100922.16;5093833;27;45358;-82
2023/06/13 01:01:14;;;;;;;;;26.00;24.33;;;;;20.68;100.00;100924.84;5058207;28;45439;-81
2023/06/13 01:03:45;;;;;;;;;30.00;27.33;;;;;20.63;100.00;100919.84;5062977;27;45521;-81
2023/06/13 01:06:13;;;;;;;;;30.00;26.33;;;;;20.65;100.00;100934.00;5068641;28;45638;-80
2023/06/13 01:08:40;;;;;;;;;28.33;28.33;;;;;20.55;100.00;100921.53;5097605;27;45357;-81
2023/06/13 01:11:28;;;;;;;;;32.67;29.00;;;;;20.56;100.00;100936.66;5069225;27;45575;-81
2023/06/13 01:14:03;;;;;;;;;34.00;30.67;;;;;20.47;100.00;100932.94;5100263;27;45308;-81
2023/06/13 01:16:40;;;;;;;;;33.00;29.00;;;;;20.51;100.00;100930.81;5100454;27;45286;-81
2023/06/13 01:19:18;;;;;;;;;28.33;25.67;;;;;20.37;100.00;100910.53;5063390;28;45371;-81
2023/06/13 01:21:45;;;;;;;;;27.67;27.67;;;;;20.47;100.00;100924.88;5058792;27;45609;-82
2023/06/13 01:24:34;;;;;;;;;31.00;29.33;;;;;20.46;100.00;100923.16;5087913;27;46226;-81
2023/06/13 01:27:00;;;;;;;;;30.67;29.00;;;;;20.46;100.00;100919.59;5086809;27;45284;-81
2023/06/13 01:29:28;;;;;;;;;32.67;29.67;;;;;20.26;100.00;100886.38;5086866;27;45462;-81
2023/06/13 01:31:56;;;;;;;;;32.33;28.33;;;;;20.36;100.00;100916.88;5078883;28;45407;-81
2023/06/13 01:34:22;;;;;;;;;24.33;24.33;;;;;20.32;100.00;100915.41;5076182;28;46784;-81
2023/06/13 01:36:48;;;;;;;;;29.33;28.00;;;;;20.26;100.00;100908.75;5081875;27;45374;-81
2023/06/13 01:39:13;;;;;;;;;29.33;26.33;;;;;20.29;100.00;100914.84;5069315;28;45380;-81
2023/06/13 01:41:39;;;;;;;;;33.67;30.00;;;;;20.26;100.00;100914.13;5063328;28;45475;-81
2023/06/13 01:44:05;;;;;;;;;31.33;29.33;;;;;20.27;100.00;100915.84;5083184;27;46185;-81
2023/06/13 01:47:01;;;;;;;;;31.33;28.33;;;;;20.23;100.00;100911.66;5070501;28;45722;-81
2023/06/13 01:49:44;;;;;;;;;28.67;27.33;;;;;20.22;100.00;100914.50;5083365;28;45356;-81
2023/06/13 01:52:21;;;;;;;;;32.67;31.33;;;;;20.19;100.00;100910.22;5061729;28;45489;-81
2023/06/13 01:54:55;;;;;;;;;33.00;29.67;;;;;20.09;100.00;100897.72;5064874;28;45627;-81
2023/06/13 01:57:28;;;;;;;;;29.67;28.00;;;;;20.14;100.00;100911.59;5077058;28;45372;-81
2023/06/13 01:59:55;;;;;;;;;32.33;29.00;;;;;20.12;100.00;100918.94;5079741;28;45292;-81
2023/06/13 02:02:21;;;;;;;;;36.33;31.33;;;;;20.10;100.00;100916.38;5086018;27;45658;-81
2023/06/13 02:04:49;;;;;;;;;28.00;28.00;;;;;20.07;100.00;100913.97;5083806;27;45407;-82
2023/06/13 02:07:14;;;;;;;;;32.00;29.33;;;;;19.99;100.00;100910.22;5083203;27;45415;-82
2023/06/13 02:09:40;;;;;;;;;32.00;29.00;;;;;19.94;100.00;100907.06;5075768;27;45412;-81
2023/06/13 02:12:06;;;;;;;;;29.00;27.67;;;;;19.94;100.00;100910.59;5093138;27;45606;-81
2023/06/13 02:14:32;;;;;;;;;32.00;29.67;;;;;19.92;100.00;100912.59;5079217;28;46064;-82
2023/06/13 02:16:59;;;;;;;;;29.33;26.67;;;;;19.70;100.00;100878.63;5079288;28;45311;-82
2023/06/13 02:19:25;;;;;;;;;34.33;32.33;;;;;19.84;100.00;100911.50;5086541;27;45316;-82
2023/06/13 02:21:50;;;;;;;;;37.67;30.00;;;;;19.83;100.00;100902.59;5056295;27;45697;-81
2023/06/13 02:24:16;;;;;;;;;27.67;26.67;;;;;19.74;100.00;100898.88;5086608;27;46073;-82
2023/06/13 02:26:41;;;;;;;;;32.67;30.00;;;;;19.67;100.00;100896.81;5059042;28;45446;-83
2023/06/13 02:29:09;;;;;;;;;28.33;28.33;;;;;19.74;100.00;100906.06;5065839;28;45326;-82
2023/06/13 02:31:41;;;;;;;;;32.67;29.00;;;;;19.61;100.00;100897.31;5047523;28;45397;-82
2023/06/13 02:34:06;;;;;;;;;30.33;30.33;;;;;19.62;100.00;100893.69;5077191;27;45943;-81
2023/06/13 02:36:32;;;;;;;;;30.67;28.00;;;;;19.66;100.00;100904.03;5076301;28;45732;-82
2023/06/13 02:38:57;;;;;;;;;25.67;24.67;;;;;19.52;100.00;100879.31;5082478;27;45358;-81
2023/06/13 02:41:23;;;;;;;;;32.67;29.67;;;;;19.60;100.00;100898.31;5091217;27;45446;-81
2023/06/13 02:43:48;;;;;;;;;35.67;30.00;;;;;19.47;100.00;100884.22;5080431;27;56405;-81
2023/06/13 02:46:15;;;;;;;;;26.00;26.00;;;;;19.48;100.00;100886.75;5069208;27;45392;-81
2023/06/13 02:48:40;;;;;;;;;30.33;28.33;;;;;19.48;100.00;100891.28;5076487;27;45514;-81
2023/06/13 02:51:08;;;;;;;;;27.67;26.33;;;;;19.45;100.00;100895.06;5057117;28;45595;-81
2023/06/13 02:53:34;;;;;;;;;29.33;28.67;;;;;19.42;100.00;100895.31;5086808;27;46220;-81
2023/06/13 02:55:59;;;;;;;;;35.00;31.00;;;;;19.31;100.00;100883.72;5090634;27;45241;-81
2023/06/13 02:58:25;;;;;;;;;36.33;30.00;;;;;19.27;100.00;100879.63;5075920;28;45320;-82
2023/06/13 03:00:51;;;;;;;;;35.33;29.33;;;;;19.30;100.00;100885.59;5056547;28;45297;-82
2023/06/13 03:03:18;;;;;;;;;31.67;29.67;;;;;19.27;100.00;100883.16;5087124;27;47501;-82
2023/06/13 03:05:47;;;;;;;;;30.00;29.67;;;;;19.21;100.00;100875.59;5064098;28;45434;-81
2023/06/13 03:08:18;;;;;;;;;30.67;29.00;;;;;19.27;100.00;100890.34;5078009;28;45235;-82
2023/06/13 03:10:43;;;;;;;;;30.00;29.67;;;;;19.18;100.00;100894.59;5073674;27;45312;-81
2023/06/13 03:13:08;;;;;;;;;33.00;27.67;;;;;19.12;100.00;100887.91;5098564;27;45608;-82
2023/06/13 03:15:34;;;;;;;;;31.00;29.33;;;;;19.20;100.00;100898.03;5098774;27;56416;-82
2023/06/13 03:18:00;;;;;;;;;35.67;32.00;;;;;19.19;100.00;100899.84;5073054;27;45435;-81
2023/06/13 03:20:25;;;;;;;;;33.67;31.33;;;;;19.17;100.00;100907.16;5053173;28;45367;-82
2023/06/13 03:22:51;;;;;;;;;30.67;26.67;;;;;19.15;100.00;100901.06;5086426;27;45517;-82
2023/06/13 03:25:17;;;;;;;;;36.33;31.67;;;;;18.96;100.00;100876.75;5084871;27;52607;-82
2023/06/13 03:27:43;;;;;;;;;34.00;30.67;;;;;19.06;100.00;100896.47;5090190;27;45389;-82
2023/06/13 03:30:09;;;;;;;;;39.67;33.67;;;;;19.03;100.00;100886.00;5075713;28;45304;-82
2023/06/13 03:32:36;;;;;;;;;33.33;30.00;;;;;19.04;100.00;100903.75;5057451;28;46495;-81
2023/06/13 03:35:02;;;;;;;;;36.00;31.33;;;;;18.95;100.00;100883.06;5089617;27;45438;-81
2023/06/13 03:37:28;;;;;;;;;37.67;32.67;;;;;19.07;100.00;100905.38;5080969;27;45469;-81
2023/06/13 03:39:53;;;;;;;;;33.67;31.00;;;;;18.95;100.00;100880.38;5094102;27;45404;-81
2023/06/13 03:42:19;;;;;;;;;33.00;30.33;;;;;18.95;100.00;100892.94;5092535;27;45474;-82
2023/06/13 03:44:48;;;;;;;;;34.67;30.00;;;;;18.97;100.00;100894.53;5094450;27;45372;-82
2023/06/13 03:47:14;;;;;;;;;34.67;32.00;;;;;18.90;100.00;100889.78;5067395;28;45335;-82
2023/06/13 03:49:39;;;;;;;;;33.33;30.33;;;;;18.86;100.00;100891.00;5081508;27;45344;-82
2023/06/13 03:52:05;;;;;;;;;31.00;29.00;;;;;18.84;100.00;100883.09;5095732;27;45300;-83
2023/06/13 03:54:30;;;;;;;;;30.33;28.00;;;;;18.86;100.00;100889.19;5101235;27;45347;-82
2023/06/13 03:56:55;;;;;;;;;31.67;30.00;;;;;18.83;100.00;100891.25;5085559;28;45345;-82
2023/06/13 03:59:21;;;;;;;;;35.00;30.67;;;;;18.79;100.00;100889.78;5082524;27;45271;-82
2023/06/13 04:01:47;;;;;;;;;40.00;32.00;;;;;18.86;100.00;100901.72;5092571;27;46075;-82
2023/06/13 04:04:12;;;;;;;;;32.67;29.67;;;;;18.84;100.00;100903.69;5069063;27;45334;-82
2023/06/13 04:06:37;;;;;;;;;30.00;29.00;;;;;18.87;100.00;100904.28;5087542;27;45329;-82
2023/06/13 04:09:06;;;;;;;;;32.33;28.00;;;;;18.87;100.00;100906.97;5094419;27;45549;-82
2023/06/13 04:11:33;;;;;;;;;31.00;29.33;;;;;18.80;100.00;100900.38;5063028;28;47681;-82
2023/06/13 04:13:59;;;;;;;;;32.00;29.67;;;;;18.90;100.00;100911.22;5081474;27;45331;-81
2023/06/13 04:16:25;;;;;;;;;31.33;30.00;;;;;18.80;100.00;100899.53;5082978;27;45431;-81
2023/06/13 04:18:54;;;;;;;;;32.33;30.00;;;;;18.85;100.00;100902.72;5078795;27;45635;-81
2023/06/13 04:21:21;;;;;;;;;37.33;32.00;;;;;18.82;100.00;100898.44;5059238;28;47974;-80
2023/06/13 04:23:48;;;;;;;;;31.67;28.00;;;;;18.83;100.00;100902.81;5080577;28;45300;-81
2023/06/13 04:26:17;;;;;;;;;33.67;30.00;;;;;18.87;100.00;100911.47;5086786;27;45491;-81
2023/06/13 04:28:42;;;;;;;;;35.67;31.33;;;;;18.87;100.00;100909.66;5084318;27;45392;-81
2023/06/13 04:31:08;;;;;;;;;30.00;30.00;;;;;18.77;100.00;100889.91;5099431;27;45422;-81
2023/06/13 04:33:33;;;;;;;;;43.00;32.00;;;;;18.60;100.00;100877.00;5068004;28;45580;-81
2023/06/13 04:36:05;;;;;;;;;36.67;32.00;;;;;18.87;100.00;100903.44;5083259;27;45498;-82
2023/06/13 04:38:34;;;;;;;;;32.33;31.00;;;;;18.92;100.00;100907.44;5061574;28;45301;-81
2023/06/13 04:41:00;;;;;;;;;38.33;33.00;;;;;18.91;100.00;100903.06;5080750;28;45403;-81
2023/06/13 04:43:28;;;;;;;;;35.67;31.67;;;;;18.88;100.00;100895.25;5094188;27;45303;-81
2023/06/13 04:45:55;;;;;;;;;36.00;31.00;;;;;19.00;100.00;100914.88;5062808;28;45270;-81
2023/06/13 04:48:25;;;;;;;;;24.33;23.00;;;;;19.00;100.00;100918.41;5094231;27;45226;-81
2023/06/13 04:50:53;;;;;;;;;34.33;32.00;;;;;19.09;100.00;100925.72;5058476;28;46133;-81
2023/06/13 04:53:21;;;;;;;;;37.67;32.67;;;;;19.10;100.00;100924.75;5076858;28;45404;-81
2023/06/13 04:55:47;;;;;;;;;38.00;31.67;;;;;19.11;100.00;100917.53;5061553;28;45476;-81
2023/06/13 04:58:13;;;;;;;;;36.00;31.75;;;;;19.07;100.00;100897.31;5093990;27;46123;-81
2023/06/13 05:00:38;;;;;;;;;32.33;31.00;;;;;19.24;100.00;100931.66;5062267;28;47186;-82
2023/06/13 05:03:04;;;;;;;;;34.00;30.00;;;;;19.14;100.00;100904.72;5073446;27;45485;-81
2023/06/13 05:05:29;;;;;;;;;32.67;28.00;;;;;19.23;100.00;100922.78;5075902;27;45399;-81
2023/06/13 05:07:57;;;;;;;;;36.00;29.33;;;;;19.27;100.00;100924.22;5097810;27;45386;-81
2023/06/13 05:10:24;;;;;;;;;35.00;30.00;;;;;19.38;100.00;100927.84;5077462;27;45452;-81
2023/06/13 05:12:50;;;;;;;;;36.33;30.67;;;;;19.40;100.00;100926.81;5100440;27;45424;-81
2023/06/13 05:15:16;;;;;;;;;37.00;30.00;;;;;19.35;100.00;100906.63;5100681;27;45363;-81
2023/06/13 05:17:45;;;;;;;;;30.00;29.67;;;;;19.45;100.00;100919.22;5093063;27;45391;-81
2023/06/13 05:20:12;;;;;;;;;31.67;30.00;;;;;19.47;100.00;100921.78;5071409;27;46825;-81
2023/06/13 05:22:39;;;;;;;;;32.00;28.67;;;;;19.55;100.00;100930.03;5062814;28;45487;-81
2023/06/13 05:25:08;;;;;;;;;33.33;29.33;;;;;19.59;100.00;100928.81;5067414;28;45498;-82
2023/06/13 05:27:34;;;;;;;;;33.33;31.00;;;;;19.62;100.00;100925.88;5079810;28;45510;-81
2023/06/13 05:29:59;;;;;;;;;27.00;25.33;;;;;19.65;100.00;100930.97;5085908;27;46322;-81
2023/06/13 05:32:25;;;;;;;;;29.33;28.33;;;;;19.74;100.00;100935.56;5074725;27;49794;-81
2023/06/13 05:34:50;;;;;;;;;29.67;27.00;;;;;19.79;100.00;100933.38;5076568;27;45321;-82
2023/06/13 05:37:16;;;;;;;;;31.00;29.67;;;;;19.86;100.00;100939.09;5087795;27;45369;-82
2023/06/13 05:39:41;;;;;;;;;31.33;30.00;;;;;19.87;100.00;100921.97;5100205;27;45458;-81
2023/06/13 05:42:07;;;;;;;;;32.33;28.33;;;;;19.98;100.00;100920.13;5100241;27;45363;-82
2023/06/13 05:44:32;;;;;;;;;37.67;32.33;;;;;20.04;100.00;100924.97;5086805;27;45521;-81
2023/06/13 05:46:58;;;;;;;;;36.33;28.67;;;;;20.10;100.00;100911.00;5068537;28;45602;-81
2023/06/13 05:49:23;;;;;;;;;33.00;31.67;;;;;20.07;100.00;100913.97;5079896;27;50011;-81
2023/06/13 05:51:48;;;;;;;;;28.33;26.00;;;;;20.23;100.00;100914.34;5090670;27;45284;-81
2023/06/13 05:54:14;;;;;;;;;28.00;27.00;;;;;20.31;100.00;100923.63;5081942;27;45310;-81
2023/06/13 05:56:39;;;;;;;;;46.00;32.00;;;;;20.40;100.00;100923.69;5081002;28;45269;-82
2023/06/13 05:59:05;;;;;;;;;38.33;30.33;;;;;20.33;100.00;100898.31;5067568;28;49140;-81
2023/06/13 06:01:31;;;;;;;;;31.00;29.33;;;;;20.56;100.00;100925.88;5066994;28;45520;-81
2023/06/13 06:03:56;;;;;;;;;32.67;29.00;;;;;20.58;100.00;100918.56;5078442;27;45324;-82
2023/06/13 06:06:22;;;;;;;;;30.00;28.33;;;;;20.63;100.00;100929.75;5083747;27;45370;-84
2023/06/13 06:08:47;;;;;;;;;30.33;28.00;;;;;20.80;100.00;100931.81;5063486;28;45438;-83
2023/06/13 06:11:13;;;;;;;;;35.00;34.00;;;;;20.73;100.00;100909.16;5052598;27;45783;-84
2023/06/13 06:13:38;;;;;;;;;35.00;32.33;;;;;20.82;100.00;100919.09;5061371;28;45502;-83
2023/06/13 06:16:03;;;;;;;;;33.67;31.33;;;;;21.00;100.00;100924.69;5078452;28;51172;-83
2023/06/13 06:18:29;;;;;;;;;38.67;32.67;;;;;21.03;98.33;100905.59;5078764;27;45594;-83
2023/06/13 06:20:54;;;;;;;;;41.33;36.00;;;;;21.16;100.00;100919.69;5061570;28;45660;-83
2023/06/13 06:23:20;;;;;;;;;33.33;27.67;;;;;21.21;100.00;100915.59;5079121;28;45352;-82
2023/06/13 06:25:46;;;;;;;;;34.33;32.33;;;;;21.36;100.00;100917.88;5063387;27;46383;-82
2023/06/13 06:28:11;;;;;;;;;36.33;34.33;;;;;21.40;98.36;100911.25;5061766;28;47477;-83
2023/06/13 06:30:39;;;;;;;;;33.00;30.33;;;;;21.55;97.59;100916.09;5078519;27;45357;-82
2023/06/13 06:33:05;;;;;;;;;37.33;33.33;;;;;21.55;96.82;100896.38;5053833;28;45524;-82
2023/06/13 06:39:48;;;;;;;;;37.00;33.33;;;;;21.37;92.48;100831.63;5028827;28;45649;-81
2023/06/13 06:42:57;;;;;;;;;39.33;29.00;;;;;21.63;92.56;100848.91;4978359;28;45547;-83
2023/06/13 06:46:16;;;;;;;;;37.00;31.00;;;;;21.61;92.08;100837.47;4887972;28;45367;-84
2023/06/13 06:49:24;;;;;;;;;36.00;33.00;;;;;21.68;90.33;100819.75;4923103;28;45624;-84
2023/06/13 06:52:17;;;;;;;;;;;;;;;;;;;;;
2023/06/13 06:54:43;;;;;;;;;37.33;29.67;;;;;22.13;87.31;100852.31;4993884;28;73295;-83
2023/06/13 06:57:12;;;;;;;;;26.67;23.00;;;;;22.26;84.49;100839.38;5025347;28;45507;-80
2023/06/13 06:59:37;;;;;;;;;28.33;26.67;;;;;22.38;84.48;100845.44;5018829;28;45354;-83
2023/06/13 07:05:07;;;;;;;;;20.67;20.67;;;;;22.67;81.29;100848.91;4997323;28;47275;-84
2023/06/13 07:07:44;;;;;;;;;22.67;21.00;;;;;23.10;80.31;100914.84;5000959;28;45413;-85
2023/06/13 07:10:20;;;;;;;;;21.33;20.67;;;;;23.00;78.68;100871.75;5015674;28;45409;-85
2023/06/13 07:12:45;;;;;;;;;22.33;20.33;;;;;23.12;74.68;100870.53;5008322;28;46413;-85
2023/06/13 07:15:31;;;;;;;;;22.67;21.00;;;;;22.92;75.23;100822.22;5068337;28;45338;-84
2023/06/13 07:18:44;;;;;;;;;21.33;19.33;;;;;23.18;73.52;100844.78;5059099;28;45404;-85
2023/06/13 07:21:13;;;;;;;;;17.33;17.33;;;;;23.29;70.38;100833.78;5061407;28;45337;-84
2023/06/13 07:23:46;;;;;;;;;20.67;16.67;;;;;23.34;70.01;100845.81;5057857;28;47258;-85
2023/06/13 07:26:12;;;;;;;;;25.33;18.00;;;;;23.35;69.34;100828.63;5061647;28;45377;-84
2023/06/13 07:28:45;;;;;;;;;21.00;18.67;;;;;23.78;69.80;100881.03;5065082;28;45480;-85
2023/06/13 07:31:11;;;;;;;;;19.00;16.00;;;;;23.90;69.77;100871.66;5056854;28;45562;-84
2023/06/13 07:33:57;;;;;;;;;16.33;16.33;;;;;23.80;70.67;100854.69;5066553;28;46445;-85
2023/06/13 07:36:48;;;;;;;;;20.00;18.67;;;;;23.68;68.36;100831.66;5060206;28;45590;-84
2023/06/13 07:39:42;;;;;;;;;22.67;19.33;;;;;23.84;69.25;100873.16;5056728;28;45475;-85
2023/06/13 07:42:07;;;;;;;;;22.67;18.00;;;;;23.59;67.32;100868.50;5045765;28;45602;-85
2023/06/13 07:44:33;;;;;;;;;21.00;19.67;;;;;23.73;68.05;100865.28;5058377;28;45678;-84
2023/06/13 07:46:58;;;;;;;;;27.00;24.33;;;;;24.31;67.01;100925.06;5071005;28;45478;-84
2023/06/13 07:49:30;;;;;;;;;27.67;23.67;;;;;23.98;70.21;100841.19;5070519;28;45443;-85
2023/06/13 07:52:07;;;;;;;;;24.00;19.00;;;;;24.16;67.31;100823.06;5063495;28;45459;-85
2023/06/13 07:54:45;;;;;;;;;16.67;15.33;;;;;24.66;66.85;100847.53;5061152;28;46208;-85
2023/06/13 07:57:12;;;;;;;;;15.67;15.67;;;;;24.94;63.36;100862.56;5042726;28;45239;-85
2023/06/13 08:02:50;;;;;;;;;20.33;18.33;;;;;25.11;61.83;100847.22;5042623;28;45458;-85
2023/06/13 08:05:34;;;;;;;;;16.00;16.00;;;;;25.23;61.99;100829.66;5067927;28;45646;-85
2023/06/13 08:08:05;;;;;;;;;18.33;16.00;;;;;25.49;60.15;100845.81;5064555;28;45246;-85
2023/06/13 08:10:43;;;;;;;;;15.33;15.33;;;;;25.40;59.67;100840.38;5048573;28;46562;-85
2023/06/13 08:13:18;;;;;;;;;16.33;16.33;;;;;25.61;60.00;100866.16;5041948;28;45292;-84
2023/06/13 08:16:12;;;;;;;;;18.67;16.33;;;;;25.55;59.32;100845.16;5060247;28;45428;-85
2023/06/13 08:18:38;;;;;;;;;15.33;13.33;;;;;25.65;59.15;100835.88;5066628;28;45196;-85
2023/06/13 08:21:21;;;;;;;;;19.33;17.00;;;;;26.00;59.60;100874.47;5072239;28;45284;-85
2023/06/13 08:23:55;;;;;;;;;13.67;13.67;;;;;25.74;58.08;100820.44;5080001;28;45359;-84
2023/06/13 08:26:53;;;;;;;;;20.33;17.67;;;;;25.83;58.32;100806.72;5069144;28;45480;-85
2023/06/13 08:29:30;;;;;;;;;18.00;14.33;;;;;25.94;58.45;100804.69;5048877;28;45514;-85
2023/06/13 08:32:04;;;;;;;;;16.67;13.67;;;;;26.34;57.17;100867.84;5042340;28;45611;-84
2023/06/13 08:34:42;;;;;;;;;18.00;14.67;;;;;26.35;58.31;100877.69;5041430;28;45329;-84
2023/06/13 08:37:12;;;;;;;;;18.33;18.00;;;;;26.38;56.78;100839.38;5060635;28;47583;-85
2023/06/13 08:39:43;;;;;;;;;16.00;16.00;;;;;26.56;56.03;100860.00;5062336;28;45330;-85
2023/06/13 08:42:12;;;;;;;;;17.33;16.33;;;;;26.54;57.75;100811.34;5060664;28;45293;-85
2023/06/13 08:44:38;;;;;;;;;14.67;14.67;;;;;26.89;54.98;100853.47;5054108;28;45482;-81
2023/06/13 08:47:18;;;;;;;;;21.33;15.33;;;;;26.76;56.96;100821.44;5081727;28;46271;-84
2023/06/13 08:49:51;;;;;;;;;16.00;14.33;;;;;27.24;55.48;100871.97;5060246;28;47163;-83
2023/06/13 08:52:33;;;;;;;;;16.00;15.00;;;;;26.99;53.03;100810.69;5046066;28;45481;-83
2023/06/13 08:55:32;;;;;;;;;13.00;13.00;;;;;27.52;54.69;100877.75;5065052;28;45230;-84
2023/06/13 08:58:10;;;;;;;;;16.00;15.33;;;;;27.40;53.69;100830.25;5068948;28;46570;-83
2023/06/13 09:00:57;;;;;;;;;15.00;15.00;;;;;27.38;53.58;100805.16;5069068;28;45530;-83
2023/06/13 09:03:41;;;;;;;;;16.00;14.67;;;;;27.67;53.08;100835.19;5031759;28;45438;-83
2023/06/13 09:06:19;;;;;;;;;16.00;15.00;;;;;27.32;51.63;100789.59;5047019;28;45451;-83
2023/06/13 09:09:31;;;;;;;;;16.67;14.33;;;;;27.63;53.58;100812.13;5072312;28;45593;-83
2023/06/13 09:15:02;;;;;;;;;13.67;13.67;;;;;28.14;51.14;100850.47;5016252;28;45508;-83
2023/06/13 09:17:51;;;;;;;;;15.00;14.00;;;;;27.92;52.92;100803.19;5058774;28;45713;-83
2023/06/13 09:20:40;;;;;;;;;16.67;13.67;;;;;28.28;48.38;100834.16;5043119;28;45441;-83
2023/06/13 09:23:16;;;;;;;;;14.33;13.33;;;;;28.60;49.56;100875.66;5051130;28;45482;-84
2023/06/13 09:26:13;;;;;;;;;13.00;11.33;;;;;28.22;51.71;100799.53;5037558;28;45509;-83
2023/06/13 09:28:42;;;;;;;;;13.67;13.67;;;;;28.33;50.27;100799.09;5063606;28;45557;-83
2023/06/13 09:31:21;;;;;;;;;13.00;13.00;;;;;28.48;50.86;100798.22;5050362;28;45750;-85
2023/06/13 09:33:56;;;;;;;;;11.33;10.33;;;;;28.54;50.92;100781.97;5061415;28;45922;-84
2023/06/13 09:36:48;;;;;;;;;13.67;13.00;;;;;28.83;46.91;100820.09;5065829;28;45435;-84
2023/06/13 09:42:24;;;;;;;;;16.67;13.67;;;;;29.38;45.69;100862.28;5060764;28;46230;-84
2023/06/13 09:44:56;;;;;;;;;15.67;15.00;;;;;29.15;47.53;100835.16;5075756;28;45225;-84
2023/06/13 09:47:53;;;;;;;;;14.67;13.67;;;;;29.01;46.74;100816.13;5070977;28;45450;-84
2023/06/13 09:50:19;;;;;;;;;15.67;15.33;;;;;28.89;43.92;100794.81;5041781;28;45238;-84
2023/06/13 09:52:47;;;;;;;;;11.67;11.67;;;;;29.20;44.77;100824.53;5042470;28;45492;-84
2023/06/13 09:55:41;;;;;;;;;13.00;11.67;;;;;29.19;45.74;100816.56;5061178;28;45505;-85
2023/06/13 09:58:06;;;;;;;;;14.33;14.33;;;;;29.48;45.48;100835.56;5061695;28;45421;-84
2023/06/13 10:01:00;;;;;;;;;16.67;15.33;;;;;29.63;45.05;100840.94;5044888;28;45405;-84
2023/06/13 10:03:52;;;;;;;;;18.00;16.67;;;;;29.58;44.85;100818.88;4974468;28;47601;-84
2023/06/13 10:09:57;;;;;;;;;12.67;12.67;;;;;29.97;40.82;100841.91;5044202;28;45421;-84
2023/06/13 10:12:31;;;;;;;;;14.00;11.33;;;;;29.90;41.41;100802.84;5055828;28;45529;-83
2023/06/13 10:15:12;;;;;;;;;15.00;13.67;;;;;29.94;41.02;100811.47;5052442;28;45513;-84
2023/06/13 10:18:10;;;;;;;;;;;;;;;;;;;;;
2023/06/13 10:20:59;;;;;;;;;12.67;12.00;;;;;30.30;40.69;100872.16;5055214;28;70739;-84
2023/06/13 10:23:58;;;;;;;;;14.67;11.33;;;;;30.01;39.94;100808.81;5061074;28;45489;-85
2023/06/13 10:26:52;;;;;;;;;16.67;15.00;;;;;30.33;40.25;100851.84;5036819;28;47303;-85
2023/06/13 10:29:55;;;;;;;;;14.67;14.67;;;;;30.53;39.87;100884.78;5062924;28;45470;-85
2023/06/13 10:33:07;;;;;;;;;15.00;12.33;;;;;30.73;41.49;100870.19;5056166;28;45354;-85
2023/06/13 10:35:35;;;;;;;;;14.00;13.00;;;;;30.85;40.48;100876.78;5053892;28;45364;-85
2023/06/13 10:38:22;;;;;;;;;15.33;14.33;;;;;30.84;41.07;100875.09;5064104;28;45668;-85
2023/06/13 10:44:28;;;;;;;;;19.00;14.33;;;;;30.81;40.22;100871.91;5054555;28;45387;-85
2023/06/13 10:47:20;;;;;;;;;15.33;15.33;;;;;30.58;38.82;100806.66;5038662;28;45392;-85
2023/06/13 10:49:53;;;;;;;;;11.67;11.67;;;;;30.59;37.77;100808.38;5048429;28;46915;-83
2023/06/13 10:52:21;;;;;;;;;12.67;12.00;;;;;30.66;38.59;100805.66;5067240;28;45392;-83
2023/06/13 10:54:58;;;;;;;;;16.00;14.00;;;;;31.08;38.78;100876.50;5051031;28;45320;-83
2023/06/13 10:58:01;;;;;;;;;;;;;;;;;;;;;
2023/06/13 11:00:39;;;;;;;;;15.00;13.67;;;;;30.82;37.17;100792.50;5065494;28;76702;-84
2023/06/13 11:03:04;;;;;;;;;11.67;10.67;;;;;31.44;37.08;100865.25;5067630;28;45078;-83
2023/06/13 11:05:52;;;;;;;;;14.67;14.67;;;;;31.40;36.62;100873.03;5047527;28;45458;-84
2023/06/13 11:08:27;;;;;;;;;14.33;12.00;;;;;30.89;38.44;100792.53;5042431;28;45527;-84
2023/06/13 11:10:55;;;;;;;;;13.00;12.00;;;;;31.22;36.94;100826.28;5043093;28;45534;-84
2023/06/13 11:13:43;;;;;;;;;17.33;12.33;;;;;31.42;38.41;100815.41;5078677;28;45313;-84
2023/06/13 11:16:49;;;;;;;;;11.33;11.33;;;;;31.38;36.45;100795.81;5059187;28;45429;-84
2023/06/13 11:19:31;;;;;;;;;13.67;13.67;;;;;31.42;35.08;100790.78;5063766;28;45344;-84
2023/06/13 11:22:02;;;;;;;;;12.00;12.00;;;;;32.05;38.58;100852.34;5068617;28;45596;-85
2023/06/13 11:24:58;;;;;;;;;15.00;13.00;;;;;31.96;35.23;100839.91;5063348;28;45319;-85
2023/06/13 11:27:51;;;;;;;;;15.33;13.00;;;;;31.96;36.99;100824.34;5062970;28;45380;-85
2023/06/13 11:30:30;;;;;;;;;13.33;13.33;;;;;32.05;37.82;100819.50;5056064;28;45866;-85
2023/06/13 11:33:16;;;;;;;;;11.67;9.67;;;;;31.96;35.12;100818.00;5050503;28;47121;-85
2023/06/13 11:35:49;;;;;;;;;9.33;9.33;;;;;31.78;34.50;100768.53;5061684;28;45408;-86
2023/06/13 11:38:19;;;;;;;;;13.33;12.00;;;;;32.16;34.20;100824.34;5056623;28;45322;-85
2023/06/13 11:40:47;;;;;;;;;11.67;10.33;;;;;32.01;35.49;100774.41;5047777;28;45392;-86
2023/06/13 11:43:39;;;;;;;;;11.00;11.00;;;;;31.98;35.92;100777.59;5083509;28;45538;-86
2023/06/13 11:46:18;;;;;;;;;10.67;10.33;;;;;32.03;35.72;100774.22;5061922;28;45397;-86
2023/06/13 11:49:05;;;;;;;;;15.00;11.67;;;;;32.03;33.94;100778.63;5073982;28;45396;-86
2023/06/13 11:51:44;;;;;;;;;17.00;13.33;;;;;32.08;36.71;100782.66;5049024;28;45403;-86
2023/06/13 11:54:27;;;;;;;;;13.33;13.33;;;;;32.46;34.17;100850.19;5063752;28;45450;-85
2023/06/13 11:57:17;;;;;;;;;;;;;;;;;;;;;